sensor_id;sensor_type;location;lat;lon;timestamp;P1;durP1;ratioP1;P2;durP2;ratioP2
7383;SDS011;3733;47.994;8.820;2022-11-10T00:00:00;1.40;;;1.30;;
7383;SDS011;3733;47.994;8.820;2022-11-10T00:02:26;2.70;;;1.53;;
7383;SDS011;3733;47.994;8.820;2022-11-10T00:04:52;1.00;;;1.00;;
7383;SDS011;3733;47.994;8.820;2022-11-10T00:07:17;2.10;;;1.30;;
7383;SDS011;3733;47.994;8.820;2022-11-10T00:09:43;1.27;;;1.10;;
7383;SDS011;3733;47.994;8.820;2022-11-10T00:12:08;6.53;;;1.67;;
7383;SDS011;3733;47.994;8.820;2022-11-10T00:14:34;1.87;;;1.30;;
7383;SDS011;3733;47.994;8.820;2022-11-10T00:17:18;1.73;;;1.10;;
7383;SDS011;3733;47.994;8.820;2022-11-10T00:19:44;1.37;;;1.17;;
7383;SDS011;3733;47.994;8.820;2022-11-10T00:22:09;1.47;;;1.20;;
7383;SDS011;3733;47.994;8.820;2022-11-10T00:24:35;2.60;;;1.37;;
7383;SDS011;3733;47.994;8.820;2022-11-10T00:27:00;1.97;;;1.20;;
7383;SDS011;3733;47.994;8.820;2022-11-10T00:29:26;3.37;;;1.20;;
7383;SDS011;3733;47.994;8.820;2022-11-10T00:31:52;2.13;;;1.40;;
7383;SDS011;3733;47.994;8.820;2022-11-10T00:34:17;2.90;;;1.30;;
7383;SDS011;3733;47.994;8.820;2022-11-10T00:36:43;1.20;;;1.10;;
7383;SDS011;3733;47.994;8.820;2022-11-10T00:39:09;1.90;;;1.37;;
7383;SDS011;3733;47.994;8.820;2022-11-10T00:41:35;2.90;;;1.20;;
7383;SDS011;3733;47.994;8.820;2022-11-10T00:44:01;1.20;;;1.10;;
7383;SDS011;3733;47.994;8.820;2022-11-10T00:46:26;2.10;;;1.60;;
7383;SDS011;3733;47.994;8.820;2022-11-10T00:48:52;5.67;;;1.40;;
7383;SDS011;3733;47.994;8.820;2022-11-10T00:51:22;2.30;;;1.30;;
7383;SDS011;3733;47.994;8.820;2022-11-10T00:53:49;1.40;;;1.30;;
7383;SDS011;3733;47.994;8.820;2022-11-10T00:56:15;1.70;;;1.60;;
7383;SDS011;3733;47.994;8.820;2022-11-10T00:58:41;3.03;;;1.83;;
7383;SDS011;3733;47.994;8.820;2022-11-10T01:01:07;2.20;;;1.27;;
7383;SDS011;3733;47.994;8.820;2022-11-10T01:03:34;1.67;;;1.10;;
7383;SDS011;3733;47.994;8.820;2022-11-10T01:06:19;3.40;;;1.30;;
7383;SDS011;3733;47.994;8.820;2022-11-10T01:08:45;2.83;;;1.60;;
7383;SDS011;3733;47.994;8.820;2022-11-10T01:11:14;1.50;;;1.40;;
7383;SDS011;3733;47.994;8.820;2022-11-10T01:13:48;4.90;;;1.50;;
7383;SDS011;3733;47.994;8.820;2022-11-10T01:16:17;3.07;;;1.77;;
7383;SDS011;3733;47.994;8.820;2022-11-10T01:19:01;1.93;;;1.80;;
7383;SDS011;3733;47.994;8.820;2022-11-10T01:21:28;2.30;;;1.70;;
7383;SDS011;3733;47.994;8.820;2022-11-10T01:23:54;3.10;;;1.37;;
7383;SDS011;3733;47.994;8.820;2022-11-10T01:26:20;1.77;;;1.30;;
7383;SDS011;3733;47.994;8.820;2022-11-10T01:28:46;4.40;;;1.70;;
7383;SDS011;3733;47.994;8.820;2022-11-10T01:31:14;2.63;;;1.63;;
7383;SDS011;3733;47.994;8.820;2022-11-10T01:33:41;1.50;;;1.40;;
7383;SDS011;3733;47.994;8.820;2022-11-10T01:36:07;3.13;;;1.50;;
7383;SDS011;3733;47.994;8.820;2022-11-10T01:38:35;5.40;;;1.90;;
7383;SDS011;3733;47.994;8.820;2022-11-10T01:41:03;1.47;;;1.37;;
7383;SDS011;3733;47.994;8.820;2022-11-10T01:43:30;3.23;;;1.40;;
7383;SDS011;3733;47.994;8.820;2022-11-10T01:48:38;1.63;;;1.53;;
7383;SDS011;3733;47.994;8.820;2022-11-10T01:51:15;5.27;;;1.40;;
7383;SDS011;3733;47.994;8.820;2022-11-10T01:54:21;2.03;;;1.40;;
7383;SDS011;3733;47.994;8.820;2022-11-10T01:56:43;2.73;;;1.50;;
7383;SDS011;3733;47.994;8.820;2022-11-10T01:59:13;1.50;;;1.37;;
7383;SDS011;3733;47.994;8.820;2022-11-10T02:01:42;3.23;;;1.47;;
7383;SDS011;3733;47.994;8.820;2022-11-10T02:04:12;4.00;;;2.10;;
7383;SDS011;3733;47.994;8.820;2022-11-10T02:06:40;2.23;;;1.70;;
7383;SDS011;3733;47.994;8.820;2022-11-10T02:09:07;3.20;;;1.83;;
7383;SDS011;3733;47.994;8.820;2022-11-10T02:11:33;2.83;;;1.70;;
7383;SDS011;3733;47.994;8.820;2022-11-10T02:14:00;2.77;;;1.90;;
7383;SDS011;3733;47.994;8.820;2022-11-10T02:16:26;1.90;;;1.57;;
7383;SDS011;3733;47.994;8.820;2022-11-10T02:18:52;2.70;;;1.97;;
7383;SDS011;3733;47.994;8.820;2022-11-10T02:21:19;3.00;;;1.60;;
7383;SDS011;3733;47.994;8.820;2022-11-10T02:23:51;2.73;;;2.10;;
7383;SDS011;3733;47.994;8.820;2022-11-10T02:26:19;3.47;;;1.63;;
7383;SDS011;3733;47.994;8.820;2022-11-10T02:28:51;1.97;;;1.70;;
7383;SDS011;3733;47.994;8.820;2022-11-10T02:31:17;2.60;;;1.60;;
7383;SDS011;3733;47.994;8.820;2022-11-10T02:33:43;4.53;;;2.17;;
7383;SDS011;3733;47.994;8.820;2022-11-10T02:36:08;2.33;;;1.83;;
7383;SDS011;3733;47.994;8.820;2022-11-10T02:38:34;8.83;;;2.10;;
7383;SDS011;3733;47.994;8.820;2022-11-10T02:41:00;4.60;;;1.90;;
7383;SDS011;3733;47.994;8.820;2022-11-10T02:43:26;1.90;;;1.80;;
7383;SDS011;3733;47.994;8.820;2022-11-10T02:45:52;4.07;;;2.03;;
7383;SDS011;3733;47.994;8.820;2022-11-10T02:48:18;2.77;;;1.80;;
7383;SDS011;3733;47.994;8.820;2022-11-10T02:50:44;3.30;;;2.10;;
7383;SDS011;3733;47.994;8.820;2022-11-10T02:53:09;3.40;;;1.87;;
7383;SDS011;3733;47.994;8.820;2022-11-10T02:55:35;6.13;;;2.23;;
7383;SDS011;3733;47.994;8.820;2022-11-10T02:58:01;4.90;;;1.97;;
7383;SDS011;3733;47.994;8.820;2022-11-10T03:00:26;11.30;;;2.00;;
7383;SDS011;3733;47.994;8.820;2022-11-10T03:02:55;2.70;;;1.90;;
7383;SDS011;3733;47.994;8.820;2022-11-10T03:05:29;3.10;;;1.90;;
7383;SDS011;3733;47.994;8.820;2022-11-10T03:07:56;3.13;;;1.93;;
7383;SDS011;3733;47.994;8.820;2022-11-10T03:10:23;7.43;;;2.00;;
7383;SDS011;3733;47.994;8.820;2022-11-10T03:12:52;2.53;;;2.33;;
7383;SDS011;3733;47.994;8.820;2022-11-10T03:15:18;3.60;;;1.77;;
7383;SDS011;3733;47.994;8.820;2022-11-10T03:17:44;2.80;;;2.03;;
7383;SDS011;3733;47.994;8.820;2022-11-10T03:20:10;2.57;;;2.10;;
7383;SDS011;3733;47.994;8.820;2022-11-10T03:22:35;2.80;;;2.13;;
7383;SDS011;3733;47.994;8.820;2022-11-10T03:25:01;5.57;;;2.37;;
7383;SDS011;3733;47.994;8.820;2022-11-10T03:27:27;3.80;;;1.90;;
7383;SDS011;3733;47.994;8.820;2022-11-10T03:29:52;2.87;;;2.50;;
7383;SDS011;3733;47.994;8.820;2022-11-10T03:32:18;9.93;;;2.50;;
7383;SDS011;3733;47.994;8.820;2022-11-10T03:34:44;2.73;;;2.53;;
7383;SDS011;3733;47.994;8.820;2022-11-10T03:37:09;10.43;;;2.30;;
7383;SDS011;3733;47.994;8.820;2022-11-10T03:39:35;11.43;;;2.53;;
7383;SDS011;3733;47.994;8.820;2022-11-10T03:42:00;6.53;;;2.70;;
7383;SDS011;3733;47.994;8.820;2022-11-10T03:44:26;25.73;;;3.20;;
7383;SDS011;3733;47.994;8.820;2022-11-10T03:46:51;16.80;;;2.70;;
7383;SDS011;3733;47.994;8.820;2022-11-10T03:49:17;12.50;;;3.23;;
7383;SDS011;3733;47.994;8.820;2022-11-10T03:51:42;25.53;;;2.77;;
7383;SDS011;3733;47.994;8.820;2022-11-10T03:54:08;36.20;;;3.80;;
7383;SDS011;3733;47.994;8.820;2022-11-10T03:56:34;76.93;;;6.33;;
7383;SDS011;3733;47.994;8.820;2022-11-10T03:58:59;59.00;;;7.10;;
7383;SDS011;3733;47.994;8.820;2022-11-10T04:01:25;21.13;;;6.17;;
7383;SDS011;3733;47.994;8.820;2022-11-10T04:03:50;18.27;;;6.73;;
7383;SDS011;3733;47.994;8.820;2022-11-10T04:06:16;33.90;;;4.63;;
7383;SDS011;3733;47.994;8.820;2022-11-10T04:09:00;32.13;;;3.57;;
7383;SDS011;3733;47.994;8.820;2022-11-10T04:11:27;28.13;;;4.27;;
7383;SDS011;3733;47.994;8.820;2022-11-10T04:14:12;17.60;;;3.40;;
7383;SDS011;3733;47.994;8.820;2022-11-10T04:16:57;113.00;;;7.07;;
7383;SDS011;3733;47.994;8.820;2022-11-10T04:19:22;29.10;;;4.30;;
7383;SDS011;3733;47.994;8.820;2022-11-10T04:21:48;67.37;;;5.57;;
7383;SDS011;3733;47.994;8.820;2022-11-10T04:24:14;88.43;;;7.53;;
7383;SDS011;3733;47.994;8.820;2022-11-10T04:26:40;26.73;;;5.03;;
7383;SDS011;3733;47.994;8.820;2022-11-10T04:29:07;47.53;;;6.23;;
7383;SDS011;3733;47.994;8.820;2022-11-10T04:31:36;71.90;;;7.43;;
7383;SDS011;3733;47.994;8.820;2022-11-10T04:34:03;49.53;;;5.50;;
7383;SDS011;3733;47.994;8.820;2022-11-10T04:36:31;8.13;;;3.10;;
7383;SDS011;3733;47.994;8.820;2022-11-10T04:38:59;16.87;;;4.10;;
7383;SDS011;3733;47.994;8.820;2022-11-10T04:41:25;47.83;;;5.23;;
7383;SDS011;3733;47.994;8.820;2022-11-10T04:43:52;132.87;;;7.93;;
7383;SDS011;3733;47.994;8.820;2022-11-10T04:48:54;43.43;;;5.90;;
7383;SDS011;3733;47.994;8.820;2022-11-10T04:51:22;24.87;;;3.80;;
7383;SDS011;3733;47.994;8.820;2022-11-10T04:53:50;5.40;;;2.27;;
7383;SDS011;3733;47.994;8.820;2022-11-10T04:56:16;27.83;;;3.13;;
7383;SDS011;3733;47.994;8.820;2022-11-10T04:58:44;14.00;;;2.57;;
7383;SDS011;3733;47.994;8.820;2022-11-10T05:01:10;35.80;;;4.57;;
7383;SDS011;3733;47.994;8.820;2022-11-10T05:03:37;56.93;;;4.17;;
7383;SDS011;3733;47.994;8.820;2022-11-10T05:06:02;237.90;;;10.63;;
7383;SDS011;3733;47.994;8.820;2022-11-10T05:08:29;88.50;;;4.33;;
7383;SDS011;3733;47.994;8.820;2022-11-10T05:10:54;51.43;;;5.10;;
7383;SDS011;3733;47.994;8.820;2022-11-10T05:13:20;15.10;;;2.80;;
7383;SDS011;3733;47.994;8.820;2022-11-10T05:15:46;14.83;;;3.23;;
7383;SDS011;3733;47.994;8.820;2022-11-10T05:18:11;13.60;;;4.07;;
7383;SDS011;3733;47.994;8.820;2022-11-10T05:20:37;30.57;;;4.17;;
7383;SDS011;3733;47.994;8.820;2022-11-10T05:23:02;13.70;;;4.40;;
7383;SDS011;3733;47.994;8.820;2022-11-10T05:25:47;40.37;;;5.23;;
7383;SDS011;3733;47.994;8.820;2022-11-10T05:28:12;22.63;;;4.37;;
7383;SDS011;3733;47.994;8.820;2022-11-10T05:30:40;72.93;;;6.23;;
7383;SDS011;3733;47.994;8.820;2022-11-10T05:33:06;55.70;;;5.43;;
7383;SDS011;3733;47.994;8.820;2022-11-10T05:35:32;120.40;;;6.40;;
7383;SDS011;3733;47.994;8.820;2022-11-10T05:37:58;87.87;;;8.70;;
7383;SDS011;3733;47.994;8.820;2022-11-10T05:40:24;16.10;;;4.00;;
7383;SDS011;3733;47.994;8.820;2022-11-10T05:42:50;48.07;;;5.27;;
7383;SDS011;3733;47.994;8.820;2022-11-10T05:45:20;29.60;;;4.73;;
7383;SDS011;3733;47.994;8.820;2022-11-10T05:47:47;38.40;;;4.70;;
7383;SDS011;3733;47.994;8.820;2022-11-10T05:50:13;24.30;;;4.90;;
7383;SDS011;3733;47.994;8.820;2022-11-10T05:52:47;21.10;;;4.17;;
7383;SDS011;3733;47.994;8.820;2022-11-10T05:55:14;138.43;;;7.97;;
7383;SDS011;3733;47.994;8.820;2022-11-10T05:57:42;72.23;;;6.20;;
7383;SDS011;3733;47.994;8.820;2022-11-10T06:00:09;161.50;;;10.00;;
7383;SDS011;3733;47.994;8.820;2022-11-10T06:02:36;67.90;;;5.80;;
7383;SDS011;3733;47.994;8.820;2022-11-10T06:05:02;45.50;;;5.40;;
7383;SDS011;3733;47.994;8.820;2022-11-10T06:07:28;39.13;;;4.73;;
7383;SDS011;3733;47.994;8.820;2022-11-10T06:09:54;25.53;;;4.93;;
7383;SDS011;3733;47.994;8.820;2022-11-10T06:12:19;70.80;;;5.80;;
7383;SDS011;3733;47.994;8.820;2022-11-10T06:14:45;32.07;;;4.13;;
7383;SDS011;3733;47.994;8.820;2022-11-10T06:17:11;45.83;;;5.43;;
7383;SDS011;3733;47.994;8.820;2022-11-10T06:19:38;41.43;;;4.40;;
7383;SDS011;3733;47.994;8.820;2022-11-10T06:22:03;51.67;;;6.07;;
7383;SDS011;3733;47.994;8.820;2022-11-10T06:24:29;126.13;;;9.00;;
7383;SDS011;3733;47.994;8.820;2022-11-10T06:26:55;54.37;;;5.83;;
7383;SDS011;3733;47.994;8.820;2022-11-10T06:29:20;24.13;;;4.47;;
7383;SDS011;3733;47.994;8.820;2022-11-10T06:31:46;102.87;;;8.20;;
7383;SDS011;3733;47.994;8.820;2022-11-10T06:34:12;23.60;;;5.67;;
7383;SDS011;3733;47.994;8.820;2022-11-10T06:36:37;49.13;;;6.60;;
7383;SDS011;3733;47.994;8.820;2022-11-10T06:39:04;31.37;;;6.03;;
7383;SDS011;3733;47.994;8.820;2022-11-10T06:41:30;55.33;;;5.80;;
7383;SDS011;3733;47.994;8.820;2022-11-10T06:43:57;55.13;;;4.57;;
7383;SDS011;3733;47.994;8.820;2022-11-10T06:46:23;78.93;;;8.10;;
7383;SDS011;3733;47.994;8.820;2022-11-10T06:48:49;90.67;;;6.77;;
7383;SDS011;3733;47.994;8.820;2022-11-10T06:51:15;81.80;;;8.87;;
7383;SDS011;3733;47.994;8.820;2022-11-10T06:53:41;195.03;;;12.53;;
7383;SDS011;3733;47.994;8.820;2022-11-10T06:56:07;172.63;;;11.87;;
7383;SDS011;3733;47.994;8.820;2022-11-10T06:58:33;67.73;;;7.30;;
7383;SDS011;3733;47.994;8.820;2022-11-10T07:00:59;48.53;;;8.20;;
7383;SDS011;3733;47.994;8.820;2022-11-10T07:03:25;134.10;;;10.57;;
7383;SDS011;3733;47.994;8.820;2022-11-10T07:05:52;55.70;;;8.80;;
7383;SDS011;3733;47.994;8.820;2022-11-10T07:08:18;33.20;;;6.20;;
7383;SDS011;3733;47.994;8.820;2022-11-10T07:10:44;47.30;;;6.53;;
7383;SDS011;3733;47.994;8.820;2022-11-10T07:13:16;83.67;;;7.30;;
7383;SDS011;3733;47.994;8.820;2022-11-10T07:15:42;21.87;;;6.37;;
7383;SDS011;3733;47.994;8.820;2022-11-10T07:18:08;35.80;;;6.40;;
7383;SDS011;3733;47.994;8.820;2022-11-10T07:20:34;66.37;;;7.00;;
7383;SDS011;3733;47.994;8.820;2022-11-10T07:23:00;148.03;;;10.37;;
7383;SDS011;3733;47.994;8.820;2022-11-10T07:25:28;149.93;;;10.10;;
7383;SDS011;3733;47.994;8.820;2022-11-10T07:27:55;89.10;;;8.33;;
7383;SDS011;3733;47.994;8.820;2022-11-10T07:30:25;154.40;;;10.40;;
7383;SDS011;3733;47.994;8.820;2022-11-10T07:33:02;61.30;;;7.37;;
7383;SDS011;3733;47.994;8.820;2022-11-10T07:35:38;177.27;;;10.33;;
7383;SDS011;3733;47.994;8.820;2022-11-10T07:38:11;47.93;;;7.03;;
7383;SDS011;3733;47.994;8.820;2022-11-10T07:40:38;60.87;;;8.17;;
7383;SDS011;3733;47.994;8.820;2022-11-10T07:43:05;103.03;;;9.30;;
7383;SDS011;3733;47.994;8.820;2022-11-10T07:45:31;194.50;;;11.03;;
7383;SDS011;3733;47.994;8.820;2022-11-10T07:48:01;54.00;;;8.37;;
7383;SDS011;3733;47.994;8.820;2022-11-10T07:50:29;112.77;;;8.33;;
7383;SDS011;3733;47.994;8.820;2022-11-10T07:53:02;45.00;;;7.53;;
7383;SDS011;3733;47.994;8.820;2022-11-10T07:55:36;107.63;;;10.37;;
7383;SDS011;3733;47.994;8.820;2022-11-10T07:58:03;92.17;;;9.63;;
7383;SDS011;3733;47.994;8.820;2022-11-10T08:00:29;50.07;;;9.40;;
7383;SDS011;3733;47.994;8.820;2022-11-10T08:03:02;29.37;;;8.73;;
7383;SDS011;3733;47.994;8.820;2022-11-10T08:05:30;77.60;;;10.27;;
7383;SDS011;3733;47.994;8.820;2022-11-10T08:07:56;48.03;;;8.63;;
7383;SDS011;3733;47.994;8.820;2022-11-10T08:10:22;59.83;;;10.70;;
7383;SDS011;3733;47.994;8.820;2022-11-10T08:12:54;104.27;;;11.70;;
7383;SDS011;3733;47.994;8.820;2022-11-10T08:15:22;120.80;;;11.27;;
7383;SDS011;3733;47.994;8.820;2022-11-10T08:17:48;136.03;;;12.77;;
7383;SDS011;3733;47.994;8.820;2022-11-10T08:20:14;58.43;;;10.33;;
7383;SDS011;3733;47.994;8.820;2022-11-10T08:22:40;48.63;;;9.20;;
7383;SDS011;3733;47.994;8.820;2022-11-10T08:25:07;55.77;;;9.27;;
7383;SDS011;3733;47.994;8.820;2022-11-10T08:27:32;106.93;;;10.50;;
7383;SDS011;3733;47.994;8.820;2022-11-10T08:29:58;116.07;;;11.47;;
7383;SDS011;3733;47.994;8.820;2022-11-10T08:32:24;57.27;;;7.60;;
7383;SDS011;3733;47.994;8.820;2022-11-10T08:34:50;58.87;;;8.67;;
7383;SDS011;3733;47.994;8.820;2022-11-10T08:37:16;42.50;;;7.80;;
7383;SDS011;3733;47.994;8.820;2022-11-10T08:39:41;34.73;;;8.07;;
7383;SDS011;3733;47.994;8.820;2022-11-10T08:42:07;51.83;;;8.70;;
7383;SDS011;3733;47.994;8.820;2022-11-10T08:44:33;87.87;;;9.23;;
7383;SDS011;3733;47.994;8.820;2022-11-10T08:46:58;42.50;;;8.47;;
7383;SDS011;3733;47.994;8.820;2022-11-10T08:49:24;51.93;;;8.03;;
7383;SDS011;3733;47.994;8.820;2022-11-10T08:51:50;17.50;;;7.57;;
7383;SDS011;3733;47.994;8.820;2022-11-10T08:54:15;29.20;;;8.10;;
7383;SDS011;3733;47.994;8.820;2022-11-10T08:56:41;66.40;;;8.27;;
7383;SDS011;3733;47.994;8.820;2022-11-10T08:59:06;94.57;;;9.33;;
7383;SDS011;3733;47.994;8.820;2022-11-10T09:01:32;42.73;;;7.03;;
7383;SDS011;3733;47.994;8.820;2022-11-10T09:03:58;47.77;;;9.20;;
7383;SDS011;3733;47.994;8.820;2022-11-10T09:06:23;61.20;;;7.03;;
7383;SDS011;3733;47.994;8.820;2022-11-10T09:08:49;39.70;;;8.07;;
7383;SDS011;3733;47.994;8.820;2022-11-10T09:11:15;40.67;;;8.20;;
7383;SDS011;3733;47.994;8.820;2022-11-10T09:13:40;55.57;;;7.17;;
7383;SDS011;3733;47.994;8.820;2022-11-10T09:16:06;31.93;;;6.83;;
7383;SDS011;3733;47.994;8.820;2022-11-10T09:18:32;28.03;;;7.30;;
7383;SDS011;3733;47.994;8.820;2022-11-10T09:20:58;18.93;;;7.43;;
7383;SDS011;3733;47.994;8.820;2022-11-10T09:23:23;30.93;;;8.27;;
7383;SDS011;3733;47.994;8.820;2022-11-10T09:25:51;14.07;;;6.00;;
7383;SDS011;3733;47.994;8.820;2022-11-10T09:28:19;19.47;;;5.50;;
7383;SDS011;3733;47.994;8.820;2022-11-10T09:30:46;8.60;;;4.53;;
7383;SDS011;3733;47.994;8.820;2022-11-10T09:33:13;25.53;;;6.37;;
7383;SDS011;3733;47.994;8.820;2022-11-10T09:35:39;17.53;;;5.53;;
7383;SDS011;3733;47.994;8.820;2022-11-10T09:38:05;22.60;;;6.70;;
7383;SDS011;3733;47.994;8.820;2022-11-10T09:46:29;11.43;;;5.50;;
7383;SDS011;3733;47.994;8.820;2022-11-10T09:49:10;14.87;;;5.37;;
7383;SDS011;3733;47.994;8.820;2022-11-10T09:51:42;36.20;;;11.70;;
7383;SDS011;3733;47.994;8.820;2022-11-10T09:54:20;28.10;;;10.57;;
7383;SDS011;3733;47.994;8.820;2022-11-10T09:57:06;20.90;;;8.30;;
7383;SDS011;3733;47.994;8.820;2022-11-10T09:59:35;76.73;;;7.53;;
7383;SDS011;3733;47.994;8.820;2022-11-10T10:20:45;27.97;;;10.47;;
7383;SDS011;3733;47.994;8.820;2022-11-10T10:23:35;22.10;;;10.67;;
7383;SDS011;3733;47.994;8.820;2022-11-10T10:26:14;27.03;;;11.90;;
7383;SDS011;3733;47.994;8.820;2022-11-10T10:28:45;28.07;;;10.20;;
7383;SDS011;3733;47.994;8.820;2022-11-10T10:33:43;51.43;;;11.77;;
7383;SDS011;3733;47.994;8.820;2022-11-10T10:36:29;22.30;;;9.67;;
7383;SDS011;3733;47.994;8.820;2022-11-10T10:38:56;21.80;;;9.67;;
7383;SDS011;3733;47.994;8.820;2022-11-10T10:41:27;23.53;;;10.03;;
7383;SDS011;3733;47.994;8.820;2022-11-10T10:43:59;23.00;;;9.87;;
7383;SDS011;3733;47.994;8.820;2022-11-10T10:46:27;20.40;;;9.03;;
7383;SDS011;3733;47.994;8.820;2022-11-10T10:49:05;19.47;;;9.60;;
7383;SDS011;3733;47.994;8.820;2022-11-10T10:51:48;22.77;;;9.13;;
7383;SDS011;3733;47.994;8.820;2022-11-10T10:57:37;31.20;;;10.50;;
7383;SDS011;3733;47.994;8.820;2022-11-10T10:59:46;22.73;;;9.27;;
7383;SDS011;3733;47.994;8.820;2022-11-10T11:02:46;21.27;;;9.60;;
7383;SDS011;3733;47.994;8.820;2022-11-10T11:05:09;18.03;;;8.47;;
7383;SDS011;3733;47.994;8.820;2022-11-10T11:07:39;21.50;;;8.80;;
7383;SDS011;3733;47.994;8.820;2022-11-10T11:10:19;16.87;;;8.10;;
7383;SDS011;3733;47.994;8.820;2022-11-10T11:12:46;17.83;;;9.10;;
7383;SDS011;3733;47.994;8.820;2022-11-10T11:17:56;38.60;;;11.80;;
7383;SDS011;3733;47.994;8.820;2022-11-10T11:20:28;27.63;;;10.50;;
7383;SDS011;3733;47.994;8.820;2022-11-10T11:32:04;57.93;;;19.00;;
7383;SDS011;3733;47.994;8.820;2022-11-10T11:37:13;39.00;;;14.03;;
7383;SDS011;3733;47.994;8.820;2022-11-10T11:39:52;33.90;;;11.57;;
7383;SDS011;3733;47.994;8.820;2022-11-10T11:45:15;26.67;;;8.40;;
7383;SDS011;3733;47.994;8.820;2022-11-10T11:51:06;18.83;;;8.43;;
7383;SDS011;3733;47.994;8.820;2022-11-10T11:53:39;17.63;;;6.93;;
7383;SDS011;3733;47.994;8.820;2022-11-10T12:02:15;9.10;;;3.93;;
7383;SDS011;3733;47.994;8.820;2022-11-10T12:05:01;8.23;;;3.90;;
7383;SDS011;3733;47.994;8.820;2022-11-10T12:10:53;6.67;;;3.20;;
7383;SDS011;3733;47.994;8.820;2022-11-10T12:14:03;4.57;;;2.57;;
7383;SDS011;3733;47.994;8.820;2022-11-10T12:16:48;5.97;;;3.00;;
7383;SDS011;3733;47.994;8.820;2022-11-10T12:25:28;6.33;;;2.53;;
7383;SDS011;3733;47.994;8.820;2022-11-10T12:28:13;11.03;;;2.70;;
7383;SDS011;3733;47.994;8.820;2022-11-10T12:30:45;7.10;;;2.17;;
7383;SDS011;3733;47.994;8.820;2022-11-10T12:35:59;7.93;;;3.53;;
7383;SDS011;3733;47.994;8.820;2022-11-10T12:38:41;8.50;;;3.00;;
7383;SDS011;3733;47.994;8.820;2022-11-10T12:41:11;6.40;;;3.60;;
7383;SDS011;3733;47.994;8.820;2022-11-10T12:46:29;6.03;;;2.60;;
7383;SDS011;3733;47.994;8.820;2022-11-10T12:51:47;7.60;;;2.77;;
7383;SDS011;3733;47.994;8.820;2022-11-10T12:54:21;12.30;;;2.60;;
7383;SDS011;3733;47.994;8.820;2022-11-10T12:56:52;4.90;;;2.60;;
7383;SDS011;3733;47.994;8.820;2022-11-10T12:59:28;8.60;;;2.77;;
7383;SDS011;3733;47.994;8.820;2022-11-10T13:02:04;3.70;;;2.17;;
7383;SDS011;3733;47.994;8.820;2022-11-10T13:04:43;4.93;;;2.50;;
7383;SDS011;3733;47.994;8.820;2022-11-10T13:07:09;3.70;;;2.27;;
7383;SDS011;3733;47.994;8.820;2022-11-10T13:09:36;5.67;;;2.27;;
7383;SDS011;3733;47.994;8.820;2022-11-10T13:15:00;1.77;;;1.63;;
7383;SDS011;3733;47.994;8.820;2022-11-10T13:19:56;5.77;;;2.30;;
7383;SDS011;3733;47.994;8.820;2022-11-10T13:22:34;3.53;;;2.00;;
7383;SDS011;3733;47.994;8.820;2022-11-10T13:28:08;2.83;;;1.73;;
7383;SDS011;3733;47.994;8.820;2022-11-10T13:35:54;5.93;;;3.07;;
7383;SDS011;3733;47.994;8.820;2022-11-10T13:38:40;3.60;;;2.20;;
7383;SDS011;3733;47.994;8.820;2022-11-10T13:43:46;8.03;;;1.83;;
7383;SDS011;3733;47.994;8.820;2022-11-10T13:46:56;4.30;;;2.03;;
7383;SDS011;3733;47.994;8.820;2022-11-10T13:49:33;3.00;;;1.67;;
7383;SDS011;3733;47.994;8.820;2022-11-10T13:57:58;6.23;;;2.20;;
7383;SDS011;3733;47.994;8.820;2022-11-10T14:00:26;3.70;;;1.77;;
7383;SDS011;3733;47.994;8.820;2022-11-10T14:02:57;5.40;;;2.60;;
7383;SDS011;3733;47.994;8.820;2022-11-10T14:07:54;4.90;;;1.63;;
7383;SDS011;3733;47.994;8.820;2022-11-10T14:10:39;3.17;;;1.93;;
7383;SDS011;3733;47.994;8.820;2022-11-10T14:13:13;7.37;;;1.97;;
7383;SDS011;3733;47.994;8.820;2022-11-10T14:15:47;6.77;;;1.90;;
7383;SDS011;3733;47.994;8.820;2022-11-10T14:18:21;4.30;;;1.47;;
7383;SDS011;3733;47.994;8.820;2022-11-10T14:20:55;3.27;;;1.70;;
7383;SDS011;3733;47.994;8.820;2022-11-10T14:23:26;4.83;;;2.10;;
7383;SDS011;3733;47.994;8.820;2022-11-10T14:25:57;4.50;;;2.20;;
7383;SDS011;3733;47.994;8.820;2022-11-10T14:30:52;7.27;;;3.30;;
7383;SDS011;3733;47.994;8.820;2022-11-10T14:33:19;10.73;;;2.03;;
7383;SDS011;3733;47.994;8.820;2022-11-10T14:36:05;4.40;;;1.97;;
7383;SDS011;3733;47.994;8.820;2022-11-10T14:38:32;6.63;;;2.50;;
7383;SDS011;3733;47.994;8.820;2022-11-10T14:41:01;6.10;;;2.70;;
7383;SDS011;3733;47.994;8.820;2022-11-10T14:43:35;4.80;;;2.10;;
7383;SDS011;3733;47.994;8.820;2022-11-10T14:46:03;4.00;;;2.63;;
7383;SDS011;3733;47.994;8.820;2022-11-10T14:48:31;8.30;;;2.33;;
7383;SDS011;3733;47.994;8.820;2022-11-10T14:51:02;8.00;;;2.23;;
7383;SDS011;3733;47.994;8.820;2022-11-10T14:53:33;5.13;;;2.40;;
7383;SDS011;3733;47.994;8.820;2022-11-10T14:56:01;11.60;;;3.70;;
7383;SDS011;3733;47.994;8.820;2022-11-10T14:58:36;34.90;;;14.60;;
7383;SDS011;3733;47.994;8.820;2022-11-10T15:01:04;69.33;;;21.90;;
7383;SDS011;3733;47.994;8.820;2022-11-10T15:03:34;55.20;;;21.67;;
7383;SDS011;3733;47.994;8.820;2022-11-10T15:06:06;63.33;;;23.87;;
7383;SDS011;3733;47.994;8.820;2022-11-10T15:08:34;53.37;;;21.67;;
7383;SDS011;3733;47.994;8.820;2022-11-10T15:11:01;61.90;;;24.07;;
7383;SDS011;3733;47.994;8.820;2022-11-10T15:18:52;40.57;;;16.80;;
7383;SDS011;3733;47.994;8.820;2022-11-10T15:21:22;67.90;;;25.30;;
7383;SDS011;3733;47.994;8.820;2022-11-10T15:23:54;120.50;;;41.40;;
7383;SDS011;3733;47.994;8.820;2022-11-10T15:26:24;104.53;;;39.83;;
7383;SDS011;3733;47.994;8.820;2022-11-10T15:28:51;78.67;;;29.43;;
7383;SDS011;3733;47.994;8.820;2022-11-10T15:31:27;40.80;;;18.50;;
7383;SDS011;3733;47.994;8.820;2022-11-10T15:33:56;32.23;;;19.13;;
7383;SDS011;3733;47.994;8.820;2022-11-10T15:39:00;29.00;;;18.63;;
7383;SDS011;3733;47.994;8.820;2022-11-10T15:41:25;29.90;;;18.30;;
7383;SDS011;3733;47.994;8.820;2022-11-10T15:43:56;23.70;;;16.67;;
7383;SDS011;3733;47.994;8.820;2022-11-10T15:46:43;22.60;;;13.30;;
7383;SDS011;3733;47.994;8.820;2022-11-10T15:49:30;36.20;;;15.90;;
7383;SDS011;3733;47.994;8.820;2022-11-10T15:51:57;30.87;;;16.30;;
7383;SDS011;3733;47.994;8.820;2022-11-10T15:54:25;23.90;;;13.70;;
7383;SDS011;3733;47.994;8.820;2022-11-10T15:56:53;17.10;;;10.57;;
7383;SDS011;3733;47.994;8.820;2022-11-10T15:59:19;13.03;;;8.70;;
7383;SDS011;3733;47.994;8.820;2022-11-10T16:01:45;14.27;;;9.80;;
7383;SDS011;3733;47.994;8.820;2022-11-10T16:04:10;12.20;;;7.87;;
7383;SDS011;3733;47.994;8.820;2022-11-10T16:06:37;13.23;;;9.30;;
7383;SDS011;3733;47.994;8.820;2022-11-10T16:09:03;16.53;;;10.67;;
7383;SDS011;3733;47.994;8.820;2022-11-10T16:11:30;16.87;;;10.00;;
7383;SDS011;3733;47.994;8.820;2022-11-10T16:13:56;15.43;;;10.03;;
7383;SDS011;3733;47.994;8.820;2022-11-10T16:16:22;24.60;;;9.53;;
7383;SDS011;3733;47.994;8.820;2022-11-10T16:18:49;13.93;;;6.90;;
7383;SDS011;3733;47.994;8.820;2022-11-10T16:21:17;18.43;;;8.67;;
7383;SDS011;3733;47.994;8.820;2022-11-10T16:23:47;13.47;;;8.50;;
7383;SDS011;3733;47.994;8.820;2022-11-10T16:26:14;11.70;;;8.27;;
7383;SDS011;3733;47.994;8.820;2022-11-10T16:28:41;17.60;;;10.50;;
7383;SDS011;3733;47.994;8.820;2022-11-10T16:31:11;16.77;;;9.90;;
7383;SDS011;3733;47.994;8.820;2022-11-10T16:33:39;25.90;;;14.63;;
7383;SDS011;3733;47.994;8.820;2022-11-10T16:36:05;24.80;;;15.57;;
7383;SDS011;3733;47.994;8.820;2022-11-10T16:38:36;27.97;;;17.07;;
7383;SDS011;3733;47.994;8.820;2022-11-10T16:41:02;35.50;;;18.30;;
7383;SDS011;3733;47.994;8.820;2022-11-10T16:43:29;26.17;;;16.13;;
7383;SDS011;3733;47.994;8.820;2022-11-10T16:45:59;24.27;;;14.93;;
7383;SDS011;3733;47.994;8.820;2022-11-10T16:48:29;15.70;;;10.97;;
7383;SDS011;3733;47.994;8.820;2022-11-10T16:50:57;15.10;;;9.87;;
7383;SDS011;3733;47.994;8.820;2022-11-10T16:53:27;18.03;;;13.10;;
7383;SDS011;3733;47.994;8.820;2022-11-10T16:55:55;17.63;;;10.77;;
7383;SDS011;3733;47.994;8.820;2022-11-10T16:58:24;20.20;;;13.30;;
7383;SDS011;3733;47.994;8.820;2022-11-10T17:00:52;21.17;;;13.20;;
7383;SDS011;3733;47.994;8.820;2022-11-10T17:06:27;17.77;;;12.27;;
7383;SDS011;3733;47.994;8.820;2022-11-10T17:08:53;15.27;;;12.27;;
7383;SDS011;3733;47.994;8.820;2022-11-10T17:11:24;23.33;;;11.40;;